SIA726 WSSS-VTSP
Flight info
| Callsign | SIA726 |
|---|---|
| Flight time | 1h 29m |
| Altitude | 38000 |
| Route | AROSO3A AROSO Y513 KALIL Y501 RINBA Y502 DUBAX R325 URGAD URGAD1C |
| Aircraft | B38M/M-SDE1E2E3FGHIJ4J7M3P2RWYZ/EB1D1 |
Departure
| Time | 2026-05-04 16:08 |
|---|---|
| Airport | Singapore Changi Airport (WSSS) |
Arrival
| Time | 2026-05-04 17:37 |
|---|---|
| Airport | Phuket International Airport (VTSP) |
| Time | Latitude | Longitude | Altitude | Speed | Heading |
|---|---|---|---|---|---|
| 2026-05-04 15:34 | 1.35619 | 103.99373 | 28 ft | 0 kts | 334° |
| 2026-05-04 15:55 | 1.35606 | 103.99380 | 28 ft | 3 kts | 334° |
| 2026-05-04 15:56 | 1.35588 | 103.99389 | 28 ft | 3 kts | 334° |
| 2026-05-04 15:56 | 1.35573 | 103.99396 | 28 ft | 1 kts | 334° |
| 2026-05-04 15:56 | 1.35560 | 103.99403 | 28 ft | 3 kts | 318° |
| 2026-05-04 15:56 | 1.35551 | 103.99415 | 28 ft | 3 kts | 264° |
| 2026-05-04 15:57 | 1.35559 | 103.99427 | 29 ft | 3 kts | 213° |
| 2026-05-04 15:57 | 1.35577 | 103.99436 | 29 ft | 3 kts | 204° |
| 2026-05-04 15:57 | 1.35591 | 103.99442 | 29 ft | 1 kts | 202° |
| 2026-05-04 15:57 | 1.35592 | 103.99443 | 29 ft | 1 kts | 202° |
| 2026-05-04 16:01 | 1.35591 | 103.99443 | 29 ft | 1 kts | 202° |
| 2026-05-04 16:01 | 1.35560 | 103.99429 | 29 ft | 11 kts | 202° |
| 2026-05-04 16:01 | 1.35449 | 103.99383 | 28 ft | 23 kts | 203° |
| 2026-05-04 16:01 | 1.35286 | 103.99315 | 28 ft | 26 kts | 202° |
| 2026-05-04 16:02 | 1.35125 | 103.99247 | 28 ft | 23 kts | 202° |
| 2026-05-04 16:02 | 1.34975 | 103.99184 | 28 ft | 24 kts | 202° |
| 2026-05-04 16:02 | 1.34657 | 103.99051 | 29 ft | 27 kts | 203° |
| 2026-05-04 16:03 | 1.34494 | 103.98983 | 29 ft | 26 kts | 202° |
| 2026-05-04 16:03 | 1.34326 | 103.98912 | 29 ft | 26 kts | 203° |
| 2026-05-04 16:03 | 1.34157 | 103.98840 | 29 ft | 25 kts | 202° |
| 2026-05-04 16:03 | 1.33989 | 103.98771 | 28 ft | 26 kts | 203° |
| 2026-05-04 16:04 | 1.33827 | 103.98703 | 28 ft | 25 kts | 202° |
| 2026-05-04 16:04 | 1.33504 | 103.98568 | 28 ft | 23 kts | 202° |
| 2026-05-04 16:04 | 1.33349 | 103.98503 | 28 ft | 25 kts | 202° |
| 2026-05-04 16:05 | 1.33191 | 103.98437 | 28 ft | 14 kts | 203° |
| 2026-05-04 16:05 | 1.33185 | 103.98434 | 28 ft | 12 kts | 203° |
| 2026-05-04 16:05 | 1.33050 | 103.98378 | 28 ft | 15 kts | 203° |
| 2026-05-04 16:06 | 1.32971 | 103.98353 | 28 ft | 8 kts | 159° |
| 2026-05-04 16:06 | 1.32912 | 103.98502 | 31 ft | 11 kts | 71° |
| 2026-05-04 16:07 | 1.32992 | 103.98546 | 31 ft | 11 kts | 22° |
| 2026-05-04 16:07 | 1.34599 | 103.99233 | 218 ft | 185 kts | 23° |
| 2026-05-04 16:08 | 1.35828 | 103.99756 | 1128 ft | 184 kts | 22° |
| 2026-05-04 16:08 | 1.39705 | 104.01378 | 2677 ft | 234 kts | 22° |
| 2026-05-04 16:09 | 1.42880 | 104.02718 | 3976 ft | 264 kts | 22° |
| 2026-05-04 16:09 | 1.46372 | 104.04189 | 5634 ft | 276 kts | 22° |
| 2026-05-04 16:10 | 1.50122 | 104.04772 | 7310 ft | 282 kts | 343° |
| 2026-05-04 16:11 | 1.55469 | 104.02051 | 9761 ft | 294 kts | 332° |
| 2026-05-04 16:11 | 1.57294 | 104.01073 | 10441 ft | 303 kts | 332° |
| 2026-05-04 16:12 | 1.63298 | 103.97838 | 12131 ft | 339 kts | 332° |
| 2026-05-04 16:12 | 1.69671 | 103.94401 | 14441 ft | 354 kts | 332° |
| 2026-05-04 16:13 | 1.74050 | 103.92033 | 15909 ft | 362 kts | 331° |
| 2026-05-04 16:13 | 1.77653 | 103.88447 | 17305 ft | 374 kts | 310° |
| 2026-05-04 16:14 | 1.80911 | 103.84315 | 18571 ft | 383 kts | 309° |
| 2026-05-04 16:14 | 1.84203 | 103.80072 | 19720 ft | 389 kts | 309° |
| 2026-05-04 16:15 | 1.89236 | 103.73558 | 21380 ft | 400 kts | 309° |
| 2026-05-04 16:16 | 1.92656 | 103.69115 | 22459 ft | 406 kts | 309° |
| 2026-05-04 16:16 | 1.97887 | 103.62317 | 23935 ft | 416 kts | 309° |
| 2026-05-04 16:17 | 2.01436 | 103.57704 | 24809 ft | 421 kts | 309° |
| 2026-05-04 16:18 | 2.06840 | 103.50681 | 26073 ft | 429 kts | 309° |
| 2026-05-04 16:18 | 2.08664 | 103.48309 | 26504 ft | 431 kts | 308° |
| 2026-05-04 16:19 | 2.14102 | 103.41044 | 27710 ft | 440 kts | 299° |
| 2026-05-04 16:19 | 2.16121 | 103.35246 | 28482 ft | 446 kts | 287° |
| 2026-05-04 16:20 | 2.18790 | 103.26306 | 29609 ft | 453 kts | 287° |
| 2026-05-04 16:20 | 2.20571 | 103.20228 | 30278 ft | 458 kts | 286° |
| 2026-05-04 16:21 | 2.23276 | 103.10995 | 31192 ft | 464 kts | 287° |
| 2026-05-04 16:22 | 2.25096 | 103.04774 | 31793 ft | 468 kts | 287° |
| 2026-05-04 16:22 | 2.27858 | 102.95336 | 32645 ft | 475 kts | 287° |
| 2026-05-04 16:23 | 2.30657 | 102.85781 | 33471 ft | 481 kts | 287° |
| 2026-05-04 16:24 | 2.34439 | 102.72867 | 34574 ft | 484 kts | 287° |
| 2026-05-04 16:25 | 2.36321 | 102.66426 | 35234 ft | 482 kts | 287° |
| 2026-05-04 16:26 | 2.40060 | 102.53628 | 36556 ft | 477 kts | 287° |
| 2026-05-04 16:26 | 2.42527 | 102.45180 | 37422 ft | 474 kts | 287° |
| 2026-05-04 16:27 | 2.44371 | 102.38867 | 37913 ft | 472 kts | 288° |
| 2026-05-04 16:28 | 2.49299 | 102.30743 | 37938 ft | 460 kts | 321° |
| 2026-05-04 16:29 | 2.66806 | 102.16739 | 37909 ft | 461 kts | 323° |
| 2026-05-04 16:31 | 2.79416 | 102.06840 | 37907 ft | 461 kts | 323° |
| 2026-05-04 16:32 | 2.94532 | 101.94970 | 37905 ft | 460 kts | 323° |
| 2026-05-04 16:33 | 3.04604 | 101.87058 | 37917 ft | 460 kts | 323° |
| 2026-05-04 16:34 | 3.12151 | 101.81129 | 37915 ft | 460 kts | 323° |
| 2026-05-04 16:35 | 3.27241 | 101.69271 | 37915 ft | 460 kts | 323° |
| 2026-05-04 16:36 | 3.35118 | 101.63869 | 37933 ft | 456 kts | 339° |
| 2026-05-04 16:37 | 3.43782 | 101.59948 | 37917 ft | 457 kts | 338° |
| 2026-05-04 16:38 | 3.55383 | 101.54781 | 37914 ft | 456 kts | 338° |
| 2026-05-04 16:39 | 3.69890 | 101.48327 | 37923 ft | 456 kts | 338° |
| 2026-05-04 16:40 | 3.81526 | 101.43148 | 37919 ft | 461 kts | 338° |
| 2026-05-04 16:41 | 3.96185 | 101.36628 | 37917 ft | 461 kts | 338° |
| 2026-05-04 16:43 | 4.10829 | 101.30112 | 37912 ft | 461 kts | 337° |
| 2026-05-04 16:43 | 4.19600 | 101.26209 | 37918 ft | 459 kts | 336° |
| 2026-05-04 16:45 | 4.37105 | 101.18416 | 37934 ft | 459 kts | 336° |
| 2026-05-04 16:46 | 4.51706 | 101.11912 | 37936 ft | 459 kts | 336° |
| 2026-05-04 16:47 | 4.63435 | 101.06794 | 37938 ft | 460 kts | 337° |
| 2026-05-04 16:48 | 4.75152 | 101.01738 | 37941 ft | 460 kts | 337° |
| 2026-05-04 16:49 | 4.86904 | 100.96663 | 37929 ft | 460 kts | 337° |
| 2026-05-04 16:50 | 4.98597 | 100.91613 | 37928 ft | 457 kts | 337° |
| 2026-05-04 16:51 | 5.07353 | 100.87830 | 37930 ft | 457 kts | 337° |
| 2026-05-04 16:52 | 5.19020 | 100.82788 | 37918 ft | 457 kts | 337° |
| 2026-05-04 16:53 | 5.27773 | 100.79004 | 37919 ft | 456 kts | 337° |
| 2026-05-04 16:54 | 5.39300 | 100.73696 | 37945 ft | 456 kts | 331° |
| 2026-05-04 16:55 | 5.55865 | 100.64359 | 37917 ft | 456 kts | 331° |
| 2026-05-04 16:56 | 5.69691 | 100.56540 | 37908 ft | 456 kts | 331° |
| 2026-05-04 16:57 | 5.78007 | 100.51818 | 37910 ft | 458 kts | 330° |
| 2026-05-04 16:58 | 5.88949 | 100.45242 | 37916 ft | 458 kts | 329° |
| 2026-05-04 17:00 | 6.05367 | 100.35401 | 37910 ft | 457 kts | 329° |
| 2026-05-04 17:01 | 6.19021 | 100.27212 | 37919 ft | 457 kts | 329° |
| 2026-05-04 17:02 | 6.29949 | 100.20654 | 37914 ft | 457 kts | 329° |
| 2026-05-04 17:03 | 6.38177 | 100.15714 | 37908 ft | 460 kts | 329° |
| 2026-05-04 17:03 | 6.45684 | 100.09837 | 37919 ft | 460 kts | 313° |
| 2026-05-04 17:04 | 6.54371 | 100.00376 | 37910 ft | 460 kts | 313° |
| 2026-05-04 17:05 | 6.62987 | 99.90862 | 37909 ft | 460 kts | 312° |
| 2026-05-04 17:06 | 6.69457 | 99.83714 | 37910 ft | 461 kts | 312° |
| 2026-05-04 17:07 | 6.73777 | 99.78940 | 37149 ft | 462 kts | 313° |
| 2026-05-04 17:07 | 6.75222 | 99.77343 | 36342 ft | 470 kts | 313° |
| 2026-05-04 17:07 | 6.78189 | 99.74062 | 35271 ft | 473 kts | 313° |
| 2026-05-04 17:07 | 6.80398 | 99.71619 | 34634 ft | 471 kts | 313° |
| 2026-05-04 17:08 | 6.82607 | 99.69175 | 33735 ft | 475 kts | 312° |
| 2026-05-04 17:08 | 6.87068 | 99.64243 | 32141 ft | 474 kts | 313° |
| 2026-05-04 17:08 | 6.89274 | 99.61802 | 31663 ft | 468 kts | 313° |
| 2026-05-04 17:09 | 6.91449 | 99.59395 | 31158 ft | 463 kts | 313° |
| 2026-05-04 17:09 | 6.93607 | 99.57006 | 30574 ft | 460 kts | 313° |
| 2026-05-04 17:09 | 6.95759 | 99.54625 | 29916 ft | 460 kts | 313° |
| 2026-05-04 17:10 | 7.00062 | 99.49878 | 28519 ft | 457 kts | 314° |
| 2026-05-04 17:10 | 7.06553 | 99.42974 | 26784 ft | 447 kts | 314° |
| 2026-05-04 17:11 | 7.08686 | 99.40699 | 26206 ft | 445 kts | 314° |
| 2026-05-04 17:11 | 7.10806 | 99.38438 | 25620 ft | 443 kts | 314° |
| 2026-05-04 17:11 | 7.15024 | 99.33938 | 24476 ft | 440 kts | 314° |
| 2026-05-04 17:12 | 7.17124 | 99.31696 | 23919 ft | 439 kts | 314° |
| 2026-05-04 17:12 | 7.20600 | 99.27986 | 22902 ft | 437 kts | 314° |
| 2026-05-04 17:13 | 7.26782 | 99.21386 | 21282 ft | 426 kts | 314° |
| 2026-05-04 17:14 | 7.32805 | 99.14952 | 19776 ft | 416 kts | 314° |
| 2026-05-04 17:14 | 7.34784 | 99.12838 | 19290 ft | 413 kts | 314° |
| 2026-05-04 17:14 | 7.38704 | 99.08649 | 18333 ft | 408 kts | 314° |
| 2026-05-04 17:15 | 7.40644 | 99.06574 | 17815 ft | 406 kts | 314° |
| 2026-05-04 17:15 | 7.44481 | 99.02473 | 16577 ft | 395 kts | 314° |
| 2026-05-04 17:16 | 7.48141 | 98.98558 | 15689 ft | 372 kts | 314° |
| 2026-05-04 17:16 | 7.53239 | 98.93105 | 14473 ft | 346 kts | 314° |
| 2026-05-04 17:17 | 7.54902 | 98.91325 | 14076 ft | 353 kts | 314° |
| 2026-05-04 17:17 | 7.60006 | 98.85863 | 12787 ft | 356 kts | 314° |
| 2026-05-04 17:18 | 7.61698 | 98.84052 | 12376 ft | 354 kts | 314° |
| 2026-05-04 17:18 | 7.65059 | 98.80453 | 11563 ft | 350 kts | 315° |
| 2026-05-04 17:19 | 7.68383 | 98.76893 | 10819 ft | 347 kts | 315° |
| 2026-05-04 17:19 | 7.71543 | 98.73505 | 10484 ft | 315 kts | 314° |
| 2026-05-04 17:20 | 7.74405 | 98.70417 | 10194 ft | 291 kts | 315° |
| 2026-05-04 17:20 | 7.76881 | 98.67335 | 9873 ft | 283 kts | 292° |
| 2026-05-04 17:20 | 7.77356 | 98.65379 | 9735 ft | 291 kts | 281° |
| 2026-05-04 17:21 | 7.78087 | 98.61306 | 9427 ft | 297 kts | 280° |
| 2026-05-04 17:21 | 7.78782 | 98.57218 | 9099 ft | 295 kts | 279° |
| 2026-05-04 17:22 | 7.79122 | 98.55179 | 8943 ft | 295 kts | 279° |
| 2026-05-04 17:22 | 7.79460 | 98.53142 | 8781 ft | 294 kts | 279° |
| 2026-05-04 17:23 | 7.80643 | 98.47115 | 8275 ft | 290 kts | 296° |
| 2026-05-04 17:23 | 7.81578 | 98.45316 | 8125 ft | 290 kts | 299° |
| 2026-05-04 17:23 | 7.83448 | 98.41719 | 7823 ft | 289 kts | 298° |
| 2026-05-04 17:24 | 7.84381 | 98.39924 | 7666 ft | 288 kts | 298° |
| 2026-05-04 17:24 | 7.87168 | 98.34562 | 7193 ft | 287 kts | 298° |
| 2026-05-04 17:25 | 7.88091 | 98.32784 | 7034 ft | 285 kts | 298° |
| 2026-05-04 17:25 | 7.89927 | 98.29252 | 6718 ft | 284 kts | 298° |
| 2026-05-04 17:26 | 7.91741 | 98.25759 | 6428 ft | 281 kts | 298° |
| 2026-05-04 17:26 | 7.94369 | 98.20699 | 5956 ft | 261 kts | 299° |
| 2026-05-04 17:27 | 7.96008 | 98.17542 | 5674 ft | 247 kts | 299° |
| 2026-05-04 17:27 | 7.97586 | 98.14502 | 5428 ft | 245 kts | 298° |
| 2026-05-04 17:28 | 7.99044 | 98.11436 | 5170 ft | 238 kts | 281° |
| 2026-05-04 17:29 | 7.98821 | 98.06564 | 4809 ft | 232 kts | 265° |
| 2026-05-04 17:29 | 8.01076 | 98.02848 | 4383 ft | 221 kts | 347° |
| 2026-05-04 17:30 | 8.05617 | 98.02218 | 4052 ft | 219 kts | 358° |
| 2026-05-04 17:31 | 8.08162 | 98.03438 | 3716 ft | 209 kts | 59° |
| 2026-05-04 17:31 | 8.09045 | 98.07697 | 3288 ft | 209 kts | 84° |
| 2026-05-04 17:32 | 8.09331 | 98.10614 | 3000 ft | 208 kts | 84° |
| 2026-05-04 17:33 | 8.09741 | 98.14905 | 2883 ft | 195 kts | 85° |
| 2026-05-04 17:33 | 8.09869 | 98.16261 | 2665 ft | 193 kts | 85° |
| 2026-05-04 17:34 | 8.10235 | 98.20136 | 1987 ft | 174 kts | 85° |
| 2026-05-04 17:34 | 8.10347 | 98.21319 | 1787 ft | 161 kts | 84° |
| 2026-05-04 17:35 | 8.10641 | 98.24448 | 1216 ft | 146 kts | 84° |
| 2026-05-04 17:35 | 8.10833 | 98.26481 | 840 ft | 144 kts | 84° |
| 2026-05-04 17:35 | 8.10928 | 98.27490 | 673 ft | 144 kts | 84° |
| 2026-05-04 17:36 | 8.11021 | 98.28493 | 436 ft | 142 kts | 84° |
| 2026-05-04 17:36 | 8.11115 | 98.29481 | 264 ft | 141 kts | 85° |
| 2026-05-04 17:36 | 8.11207 | 98.30459 | 64 ft | 138 kts | 84° |
| 2026-05-04 17:36 | 8.11288 | 98.31324 | 35 ft | 96 kts | 84° |
| 2026-05-04 17:37 | 8.11331 | 98.31777 | 51 ft | 49 kts | 84° |
| 2026-05-04 17:37 | 8.11362 | 98.32101 | 64 ft | 37 kts | 85° |
| 2026-05-04 17:37 | 8.11369 | 98.32288 | 74 ft | 24 kts | 97° |
| 2026-05-04 17:37 | 8.11321 | 98.32418 | 81 ft | 13 kts | 117° |
| 2026-05-04 17:38 | 8.11255 | 98.32406 | 71 ft | 14 kts | 250° |
| 2026-05-04 17:38 | 8.11242 | 98.32295 | 75 ft | 18 kts | 265° |
| 2026-05-04 17:38 | 8.11225 | 98.32147 | 68 ft | 22 kts | 266° |
| 2026-05-04 17:38 | 8.11217 | 98.32016 | 56 ft | 20 kts | 265° |
| 2026-05-04 17:39 | 8.11186 | 98.31686 | 48 ft | 22 kts | 264° |
| 2026-05-04 17:39 | 8.11170 | 98.31515 | 41 ft | 25 kts | 265° |
| 2026-05-04 17:39 | 8.11157 | 98.31389 | 37 ft | 15 kts | 264° |
| 2026-05-04 17:40 | 8.11146 | 98.31265 | 34 ft | 20 kts | 265° |
| 2026-05-04 17:40 | 8.11133 | 98.31115 | 32 ft | 21 kts | 264° |
| 2026-05-04 17:40 | 8.11107 | 98.30970 | 32 ft | 20 kts | 245° |
| 2026-05-04 17:40 | 8.11077 | 98.30823 | 31 ft | 23 kts | 265° |
| 2026-05-04 17:41 | 8.11062 | 98.30656 | 30 ft | 23 kts | 264° |
| 2026-05-04 17:41 | 8.11048 | 98.30517 | 30 ft | 15 kts | 259° |
| 2026-05-04 17:41 | 8.11000 | 98.30466 | 30 ft | 8 kts | 174° |
| 2026-05-04 17:41 | 8.10932 | 98.30465 | 30 ft | 11 kts | 189° |
| 2026-05-04 17:42 | 8.10846 | 98.30441 | 29 ft | 14 kts | 195° |
| 2026-05-04 17:42 | 8.10760 | 98.30400 | 29 ft | 15 kts | 234° |
| 2026-05-04 17:42 | 8.10695 | 98.30318 | 29 ft | 10 kts | 197° |
| 2026-05-04 17:42 | 8.10618 | 98.30306 | 29 ft | 13 kts | 195° |
| 2026-05-04 17:43 | 8.10528 | 98.30281 | 29 ft | 9 kts | 195° |
| 2026-05-04 17:43 | 8.10474 | 98.30250 | 28 ft | 9 kts | 237° |
| 2026-05-04 17:43 | 8.10478 | 98.30199 | 28 ft | 3 kts | 286° |
| 2026-05-04 17:43 | 8.10479 | 98.30193 | 28 ft | 0 kts | 285° |